CDT,Max TemperatureF,Mean TemperatureF,Min TemperatureF,Max Dew PointF,MeanDew PointF,Min DewpointF,Max Humidity, Mean Humidity, Min Humidity, Max Sea Level PressureIn, Mean Sea Level PressureIn, Min Sea Level PressureIn, Max VisibilityMiles, Mean VisibilityMiles, Min VisibilityMiles, Max Wind SpeedMPH, Mean Wind SpeedMPH, Max Gust SpeedMPH,PrecipitationIn, CloudCover, Events, WindDirDegrees
2012-10-1,65,54,43,45,36,27,76,50,24,30.33,30.24,30.16,10,10,10,16,9,26,0.00,2,Rain,350
2012-10-2,85,63,41,37,27,17,73,35,8,30.15,29.95,29.85,10,10,10,17,9,24,0.00,0,,268
2012-10-3,84,60,34,33,27,14,72,37,8,30.31,29.95,29.82,10,10,7,34,15,56,0.03,0,,295
2012-10-4,46,36,26,27,23,19,91,62,37,30.35,30.30,30.24,10,10,10,21,10,29,0.00,2,,3
2012-10-5,34,32,30,32,28,21,96,85,64,30.31,30.26,30.19,10,8,1,16,9,18,0.03,7,Snow,118
2012-10-6,33,30,25,30,28,24,98,92,79,30.33,30.28,30.24,10,5,0,10,4,,0.16,6,Fog-Rain-Snow,124
2012-10-7,52,36,21,29,23,18,94,68,26,30.23,30.11,30.01,10,10,10,15,8,25,0.00,0,,273
2012-10-8,68,48,29,32,22,14,79,47,13,30.01,29.92,29.83,10,10,10,21,9,33,0.00,0,,281
2012-10-9,43,36,29,38,33,27,96,81,58,30.19,30.06,29.86,10,9,3,13,7,17,0.00,4,,340
2012-10-10,67,46,26,38,31,25,95,68,26,30.19,30.07,29.95,10,9,4,15,7,16,0.00,0,,221
2012-10-11,59,47,35,37,33,30,83,65,38,30.25,30.12,29.95,10,10,7,18,9,24,0.00,3,Rain,35
2012-10-12,61,46,31,45,32,26,83,64,36,30.25,30.06,29.85,10,10,10,22,12,24,0.00,1,,173
2012-10-13,61,50,39,49,41,34,92,71,43,30.07,29.88,29.80,10,10,10,26,13,36,0.03,4,Rain-Thunderstorm,309
2012-10-14,68,54,40,38,34,29,79,51,23,30.23,30.16,30.07,10,10,10,23,11,32,0.00,1,,300
2012-10-15,77,58,39,35,30,24,76,40,13,30.13,29.98,29.85,10,10,10,22,10,26,0.00,0,,255
2012-10-16,74,56,38,47,32,26,76,41,17,29.90,29.73,29.52,10,10,7,37,13,58,0.00,2,Rain,265
2012-10-17,51,42,32,41,25,10,91,55,21,29.98,29.82,29.64,10,10,10,28,15,37,0.02,3,Rain,324
2012-10-18,53,42,32,23,14,6,64,35,15,30.07,30.03,29.98,10,10,7,39,20,50,0.00,1,,325
2012-10-19,73,52,31,26,20,15,63,32,12,30.05,29.93,29.82,10,10,10,24,12,33,0.00,0,,293
2012-10-20,77,58,40,24,20,16,48,27,10,29.83,29.75,29.68,10,10,7,24,11,32,0.00,1,,250
2012-10-21,62,50,39,39,32,22,83,53,34,29.95,29.83,29.71,10,10,10,14,7,20,0.00,0,,28
2012-10-22,59,45,31,46,39,30,98,80,43,29.94,29.86,29.72,10,7,0,20,6,24,0.00,3,Fog-Rain,138
2012-10-23,76,55,34,45,33,19,97,55,12,29.86,29.74,29.69,10,9,0,22,8,30,0.00,1,Fog,289
2012-10-24,45,36,28,38,35,27,96,85,73,30.02,29.90,29.82,10,8,1,23,9,31,0.11,7,Rain-Snow,13
2012-10-25,33,27,21,27,24,20,94,86,66,30.30,30.15,30.01,10,9,2,16,9,,0.01,4,Snow,339
2012-10-26,34,28,23,28,25,22,96,88,72,30.42,30.31,30.19,10,8,2,14,5,20,0.00,6,Snow,244
2012-10-27,46,36,25,32,27,24,92,75,49,30.18,30.09,30.05,10,10,10,15,6,21,0.00,6,,272
2012-10-28,59,46,34,37,32,26,85,62,31,30.11,30.04,29.98,10,10,10,22,8,32,0.00,4,,248
2012-10-29,69,54,39,38,35,32,82,58,27,30.10,30.06,30.03,10,10,10,26,11,33,0.00,1,,271
2012-10-30,69,55,40,35,32,27,71,45,21,30.14,30.09,30.05,10,10,10,20,13,26,0.00,0,,302
2012-10-31,70,52,34,32,29,25,85,55,19,30.14,30.11,30.08,10,10,10,16,8,23,0.00,0,,292